sensor_id;sensor_type;location;lat;lon;timestamp;P1;durP1;ratioP1;P2;durP2;ratioP2
75912;SDS011;64592;52.168;21.040;2023-03-25T00:01:00;7.68;;;4.28;;
75912;SDS011;64592;52.168;21.040;2023-03-25T00:06:09;9.85;;;4.82;;
75912;SDS011;64592;52.168;21.040;2023-03-25T00:11:11;8.27;;;4.88;;
75912;SDS011;64592;52.168;21.040;2023-03-25T00:16:13;8.35;;;4.57;;
75912;SDS011;64592;52.168;21.040;2023-03-25T00:21:17;6.43;;;4.18;;
75912;SDS011;64592;52.168;21.040;2023-03-25T00:26:19;8.13;;;4.75;;
75912;SDS011;64592;52.168;21.040;2023-03-25T00:31:20;9.77;;;5.80;;
75912;SDS011;64592;52.168;21.040;2023-03-25T00:36:23;8.25;;;4.70;;
75912;SDS011;64592;52.168;21.040;2023-03-25T00:41:25;10.05;;;5.32;;
75912;SDS011;64592;52.168;21.040;2023-03-25T00:46:28;6.47;;;4.88;;
75912;SDS011;64592;52.168;21.040;2023-03-25T00:51:32;9.60;;;4.90;;
75912;SDS011;64592;52.168;21.040;2023-03-25T00:56:34;8.63;;;4.25;;
75912;SDS011;64592;52.168;21.040;2023-03-25T01:01:35;8.25;;;5.10;;
75912;SDS011;64592;52.168;21.040;2023-03-25T01:06:40;7.57;;;4.97;;
75912;SDS011;64592;52.168;21.040;2023-03-25T01:11:43;7.05;;;4.30;;
75912;SDS011;64592;52.168;21.040;2023-03-25T01:16:46;7.35;;;4.78;;
75912;SDS011;64592;52.168;21.040;2023-03-25T01:21:49;9.65;;;4.68;;
75912;SDS011;64592;52.168;21.040;2023-03-25T01:26:51;9.20;;;5.55;;
75912;SDS011;64592;52.168;21.040;2023-03-25T01:31:53;7.47;;;4.97;;
75912;SDS011;64592;52.168;21.040;2023-03-25T01:36:56;8.82;;;5.45;;
75912;SDS011;64592;52.168;21.040;2023-03-25T01:41:58;10.32;;;5.03;;
75912;SDS011;64592;52.168;21.040;2023-03-25T01:47:00;9.07;;;5.60;;
75912;SDS011;64592;52.168;21.040;2023-03-25T01:52:08;10.52;;;5.10;;
75912;SDS011;64592;52.168;21.040;2023-03-25T01:57:16;8.95;;;5.72;;
75912;SDS011;64592;52.168;21.040;2023-03-25T02:02:20;10.45;;;5.60;;
75912;SDS011;64592;52.168;21.040;2023-03-25T02:07:37;8.40;;;5.13;;
75912;SDS011;64592;52.168;21.040;2023-03-25T02:12:41;8.10;;;5.35;;
75912;SDS011;64592;52.168;21.040;2023-03-25T02:17:48;9.95;;;6.15;;
75912;SDS011;64592;52.168;21.040;2023-03-25T02:23:08;10.95;;;6.13;;
75912;SDS011;64592;52.168;21.040;2023-03-25T02:28:28;10.07;;;6.45;;
75912;SDS011;64592;52.168;21.040;2023-03-25T02:33:40;11.18;;;6.53;;
75912;SDS011;64592;52.168;21.040;2023-03-25T02:38:53;9.30;;;5.88;;
75912;SDS011;64592;52.168;21.040;2023-03-25T02:44:01;9.27;;;6.00;;
75912;SDS011;64592;52.168;21.040;2023-03-25T02:49:08;12.38;;;5.05;;
75912;SDS011;64592;52.168;21.040;2023-03-25T02:54:16;9.73;;;5.90;;
75912;SDS011;64592;52.168;21.040;2023-03-25T02:59:22;11.25;;;7.15;;
75912;SDS011;64592;52.168;21.040;2023-03-25T03:04:29;11.85;;;6.55;;
75912;SDS011;64592;52.168;21.040;2023-03-25T03:09:34;11.93;;;6.68;;
75912;SDS011;64592;52.168;21.040;2023-03-25T03:14:48;12.20;;;6.05;;
75912;SDS011;64592;52.168;21.040;2023-03-25T03:20:01;9.98;;;6.40;;
75912;SDS011;64592;52.168;21.040;2023-03-25T03:25:17;14.15;;;7.03;;
75912;SDS011;64592;52.168;21.040;2023-03-25T03:30:24;9.00;;;6.13;;
75912;SDS011;64592;52.168;21.040;2023-03-25T03:35:33;10.07;;;6.40;;
75912;SDS011;64592;52.168;21.040;2023-03-25T03:40:40;14.80;;;7.30;;
75912;SDS011;64592;52.168;21.040;2023-03-25T03:45:46;9.95;;;6.45;;
75912;SDS011;64592;52.168;21.040;2023-03-25T03:50:52;14.55;;;8.40;;
75912;SDS011;64592;52.168;21.040;2023-03-25T03:55:58;9.48;;;6.00;;
75912;SDS011;64592;52.168;21.040;2023-03-25T04:01:06;11.10;;;6.63;;
75912;SDS011;64592;52.168;21.040;2023-03-25T04:06:13;13.85;;;7.47;;
75912;SDS011;64592;52.168;21.040;2023-03-25T04:11:21;14.27;;;7.95;;
75912;SDS011;64592;52.168;21.040;2023-03-25T04:16:27;13.45;;;7.20;;
75912;SDS011;64592;52.168;21.040;2023-03-25T04:21:31;14.60;;;7.13;;
75912;SDS011;64592;52.168;21.040;2023-03-25T04:26:35;12.18;;;7.32;;
75912;SDS011;64592;52.168;21.040;2023-03-25T04:31:37;13.45;;;7.18;;
75912;SDS011;64592;52.168;21.040;2023-03-25T04:36:45;13.77;;;7.63;;
75912;SDS011;64592;52.168;21.040;2023-03-25T04:41:51;11.57;;;6.95;;
75912;SDS011;64592;52.168;21.040;2023-03-25T04:46:53;13.13;;;7.18;;
75912;SDS011;64592;52.168;21.040;2023-03-25T04:51:56;13.43;;;7.40;;
75912;SDS011;64592;52.168;21.040;2023-03-25T04:56:59;13.82;;;7.80;;
75912;SDS011;64592;52.168;21.040;2023-03-25T05:02:01;12.63;;;8.27;;
75912;SDS011;64592;52.168;21.040;2023-03-25T05:07:04;16.80;;;9.20;;
75912;SDS011;64592;52.168;21.040;2023-03-25T05:12:08;13.85;;;7.90;;
75912;SDS011;64592;52.168;21.040;2023-03-25T05:17:10;13.88;;;7.35;;
75912;SDS011;64592;52.168;21.040;2023-03-25T05:22:12;15.13;;;8.68;;
75912;SDS011;64592;52.168;21.040;2023-03-25T05:27:15;18.70;;;8.45;;
75912;SDS011;64592;52.168;21.040;2023-03-25T05:32:19;13.35;;;8.27;;
75912;SDS011;64592;52.168;21.040;2023-03-25T05:37:20;14.95;;;8.07;;
75912;SDS011;64592;52.168;21.040;2023-03-25T05:42:24;13.85;;;8.50;;
75912;SDS011;64592;52.168;21.040;2023-03-25T05:47:26;17.70;;;8.65;;
75912;SDS011;64592;52.168;21.040;2023-03-25T05:52:28;16.83;;;9.55;;
75912;SDS011;64592;52.168;21.040;2023-03-25T05:57:31;16.75;;;9.23;;
75912;SDS011;64592;52.168;21.040;2023-03-25T06:02:33;15.05;;;8.73;;
75912;SDS011;64592;52.168;21.040;2023-03-25T06:07:37;14.57;;;8.18;;
75912;SDS011;64592;52.168;21.040;2023-03-25T06:12:43;16.23;;;8.40;;
75912;SDS011;64592;52.168;21.040;2023-03-25T06:17:45;13.00;;;8.02;;
75912;SDS011;64592;52.168;21.040;2023-03-25T06:22:47;16.05;;;9.23;;
75912;SDS011;64592;52.168;21.040;2023-03-25T06:27:50;14.52;;;8.32;;
75912;SDS011;64592;52.168;21.040;2023-03-25T06:32:52;14.95;;;8.48;;
75912;SDS011;64592;52.168;21.040;2023-03-25T06:37:54;13.82;;;8.73;;
75912;SDS011;64592;52.168;21.040;2023-03-25T06:42:57;18.92;;;9.05;;
75912;SDS011;64592;52.168;21.040;2023-03-25T06:47:59;13.82;;;8.68;;
75912;SDS011;64592;52.168;21.040;2023-03-25T06:53:01;19.17;;;9.50;;
75912;SDS011;64592;52.168;21.040;2023-03-25T06:58:05;16.13;;;8.73;;
75912;SDS011;64592;52.168;21.040;2023-03-25T07:03:06;15.80;;;8.48;;
75912;SDS011;64592;52.168;21.040;2023-03-25T07:08:08;17.75;;;9.18;;
75912;SDS011;64592;52.168;21.040;2023-03-25T07:13:11;15.90;;;8.75;;
75912;SDS011;64592;52.168;21.040;2023-03-25T07:18:14;15.05;;;8.40;;
75912;SDS011;64592;52.168;21.040;2023-03-25T07:23:16;15.32;;;8.75;;
75912;SDS011;64592;52.168;21.040;2023-03-25T07:28:19;15.25;;;8.82;;
75912;SDS011;64592;52.168;21.040;2023-03-25T07:33:21;13.15;;;8.48;;
75912;SDS011;64592;52.168;21.040;2023-03-25T07:38:23;14.40;;;8.57;;
75912;SDS011;64592;52.168;21.040;2023-03-25T07:43:26;14.75;;;8.82;;
75912;SDS011;64592;52.168;21.040;2023-03-25T07:48:29;16.15;;;9.15;;
75912;SDS011;64592;52.168;21.040;2023-03-25T07:53:30;15.50;;;8.23;;
75912;SDS011;64592;52.168;21.040;2023-03-25T07:58:33;14.93;;;8.13;;
75912;SDS011;64592;52.168;21.040;2023-03-25T08:03:35;18.58;;;8.05;;
75912;SDS011;64592;52.168;21.040;2023-03-25T08:08:38;11.90;;;8.38;;
75912;SDS011;64592;52.168;21.040;2023-03-25T08:13:42;13.50;;;8.20;;
75912;SDS011;64592;52.168;21.040;2023-03-25T08:18:43;11.95;;;7.43;;
75912;SDS011;64592;52.168;21.040;2023-03-25T08:23:45;13.15;;;8.05;;
75912;SDS011;64592;52.168;21.040;2023-03-25T08:28:49;11.07;;;7.13;;
75912;SDS011;64592;52.168;21.040;2023-03-25T08:33:50;13.70;;;7.15;;
75912;SDS011;64592;52.168;21.040;2023-03-25T08:38:52;13.20;;;7.45;;
75912;SDS011;64592;52.168;21.040;2023-03-25T08:43:55;13.45;;;7.55;;
75912;SDS011;64592;52.168;21.040;2023-03-25T08:48:57;12.90;;;6.40;;
75912;SDS011;64592;52.168;21.040;2023-03-25T08:53:58;9.80;;;5.10;;
75912;SDS011;64592;52.168;21.040;2023-03-25T08:59:02;10.85;;;5.63;;
75912;SDS011;64592;52.168;21.040;2023-03-25T09:04:04;11.95;;;5.55;;
75912;SDS011;64592;52.168;21.040;2023-03-25T09:09:05;6.72;;;4.80;;
75912;SDS011;64592;52.168;21.040;2023-03-25T09:14:09;7.50;;;4.47;;
75912;SDS011;64592;52.168;21.040;2023-03-25T09:19:11;8.48;;;5.05;;
75912;SDS011;64592;52.168;21.040;2023-03-25T09:24:13;9.93;;;4.40;;
75912;SDS011;64592;52.168;21.040;2023-03-25T09:29:16;8.35;;;4.95;;
75912;SDS011;64592;52.168;21.040;2023-03-25T09:34:17;10.48;;;4.78;;
75912;SDS011;64592;52.168;21.040;2023-03-25T09:39:19;8.95;;;3.92;;
75912;SDS011;64592;52.168;21.040;2023-03-25T09:44:23;7.18;;;4.75;;
75912;SDS011;64592;52.168;21.040;2023-03-25T09:49:30;9.57;;;4.55;;
75912;SDS011;64592;52.168;21.040;2023-03-25T09:54:38;11.98;;;4.40;;
75912;SDS011;64592;52.168;21.040;2023-03-25T09:59:48;7.85;;;3.70;;
75912;SDS011;64592;52.168;21.040;2023-03-25T10:04:54;7.70;;;4.25;;
75912;SDS011;64592;52.168;21.040;2023-03-25T10:10:12;7.78;;;4.07;;
75912;SDS011;64592;52.168;21.040;2023-03-25T10:15:28;8.73;;;4.05;;
75912;SDS011;64592;52.168;21.040;2023-03-25T10:20:37;7.85;;;4.43;;
75912;SDS011;64592;52.168;21.040;2023-03-25T10:25:48;10.48;;;4.57;;
75912;SDS011;64592;52.168;21.040;2023-03-25T10:30:56;10.35;;;4.68;;
75912;SDS011;64592;52.168;21.040;2023-03-25T10:35:59;7.35;;;4.00;;
75912;SDS011;64592;52.168;21.040;2023-03-25T10:41:06;10.07;;;5.47;;
75912;SDS011;64592;52.168;21.040;2023-03-25T10:46:18;7.65;;;5.05;;
75912;SDS011;64592;52.168;21.040;2023-03-25T10:51:27;8.65;;;4.65;;
75912;SDS011;64592;52.168;21.040;2023-03-25T10:56:32;8.20;;;4.70;;
75912;SDS011;64592;52.168;21.040;2023-03-25T11:01:38;7.45;;;3.97;;
75912;SDS011;64592;52.168;21.040;2023-03-25T11:06:43;7.30;;;4.57;;
75912;SDS011;64592;52.168;21.040;2023-03-25T11:11:46;6.80;;;3.70;;
75912;SDS011;64592;52.168;21.040;2023-03-25T11:16:50;6.18;;;3.40;;
75912;SDS011;64592;52.168;21.040;2023-03-25T11:21:56;6.03;;;3.20;;
75912;SDS011;64592;52.168;21.040;2023-03-25T11:27:00;6.60;;;3.58;;
75912;SDS011;64592;52.168;21.040;2023-03-25T11:32:05;5.90;;;3.17;;
75912;SDS011;64592;52.168;21.040;2023-03-25T11:37:14;7.28;;;3.60;;
75912;SDS011;64592;52.168;21.040;2023-03-25T11:42:25;6.13;;;3.30;;
75912;SDS011;64592;52.168;21.040;2023-03-25T11:47:34;6.80;;;3.33;;
75912;SDS011;64592;52.168;21.040;2023-03-25T11:52:38;6.80;;;3.50;;
75912;SDS011;64592;52.168;21.040;2023-03-25T11:57:44;5.45;;;3.22;;
75912;SDS011;64592;52.168;21.040;2023-03-25T12:02:49;5.47;;;3.17;;
75912;SDS011;64592;52.168;21.040;2023-03-25T12:08:03;5.20;;;3.28;;
75912;SDS011;64592;52.168;21.040;2023-03-25T12:13:15;8.63;;;3.15;;
75912;SDS011;64592;52.168;21.040;2023-03-25T12:18:40;8.18;;;2.92;;
75912;SDS011;64592;52.168;21.040;2023-03-25T12:23:50;6.95;;;3.00;;
75912;SDS011;64592;52.168;21.040;2023-03-25T12:29:08;7.20;;;2.92;;
75912;SDS011;64592;52.168;21.040;2023-03-25T12:34:23;6.85;;;3.25;;
75912;SDS011;64592;52.168;21.040;2023-03-25T12:39:40;5.13;;;3.60;;
75912;SDS011;64592;52.168;21.040;2023-03-25T12:44:57;5.78;;;2.60;;
75912;SDS011;64592;52.168;21.040;2023-03-25T12:50:18;4.50;;;2.65;;
75912;SDS011;64592;52.168;21.040;2023-03-25T12:55:33;6.28;;;2.60;;
75912;SDS011;64592;52.168;21.040;2023-03-25T13:00:46;4.63;;;2.67;;
75912;SDS011;64592;52.168;21.040;2023-03-25T13:05:57;4.90;;;2.80;;
75912;SDS011;64592;52.168;21.040;2023-03-25T13:11:05;6.07;;;2.67;;
75912;SDS011;64592;52.168;21.040;2023-03-25T13:16:12;9.77;;;3.25;;
75912;SDS011;64592;52.168;21.040;2023-03-25T13:21:20;5.05;;;3.10;;
75912;SDS011;64592;52.168;21.040;2023-03-25T13:26:28;6.63;;;3.22;;
75912;SDS011;64592;52.168;21.040;2023-03-25T13:31:32;6.45;;;3.30;;
75912;SDS011;64592;52.168;21.040;2023-03-25T13:36:39;4.70;;;3.70;;
75912;SDS011;64592;52.168;21.040;2023-03-25T13:41:45;6.63;;;3.88;;
75912;SDS011;64592;52.168;21.040;2023-03-25T13:46:52;8.73;;;3.92;;
75912;SDS011;64592;52.168;21.040;2023-03-25T13:52:00;11.65;;;5.30;;
75912;SDS011;64592;52.168;21.040;2023-03-25T13:57:19;10.18;;;4.85;;
75912;SDS011;64592;52.168;21.040;2023-03-25T14:02:38;10.65;;;4.65;;
75912;SDS011;64592;52.168;21.040;2023-03-25T14:07:56;10.63;;;5.20;;
75912;SDS011;64592;52.168;21.040;2023-03-25T14:13:16;10.77;;;4.72;;
75912;SDS011;64592;52.168;21.040;2023-03-25T14:18:23;8.20;;;5.50;;
75912;SDS011;64592;52.168;21.040;2023-03-25T14:23:27;7.45;;;4.63;;
75912;SDS011;64592;52.168;21.040;2023-03-25T14:28:32;8.45;;;4.82;;
75912;SDS011;64592;52.168;21.040;2023-03-25T14:39:36;6.50;;;3.92;;
75912;SDS011;64592;52.168;21.040;2023-03-25T14:49:45;5.30;;;3.38;;
75912;SDS011;64592;52.168;21.040;2023-03-25T14:54:51;6.60;;;2.92;;
75912;SDS011;64592;52.168;21.040;2023-03-25T14:59:54;5.57;;;3.05;;
75912;SDS011;64592;52.168;21.040;2023-03-25T15:04:59;3.33;;;1.67;;
75912;SDS011;64592;52.168;21.040;2023-03-25T15:10:06;2.10;;;1.27;;
75912;SDS011;64592;52.168;21.040;2023-03-25T15:15:26;2.38;;;1.05;;
75912;SDS011;64592;52.168;21.040;2023-03-25T15:20:31;2.28;;;1.30;;
75912;SDS011;64592;52.168;21.040;2023-03-25T15:25:36;1.95;;;1.30;;
75912;SDS011;64592;52.168;21.040;2023-03-25T15:36:14;2.38;;;1.38;;
75912;SDS011;64592;52.168;21.040;2023-03-25T15:41:54;2.53;;;1.45;;
75912;SDS011;64592;52.168;21.040;2023-03-25T15:47:21;3.15;;;1.27;;
75912;SDS011;64592;52.168;21.040;2023-03-25T15:52:38;2.03;;;1.17;;
75912;SDS011;64592;52.168;21.040;2023-03-25T15:58:05;2.10;;;1.30;;
75912;SDS011;64592;52.168;21.040;2023-03-25T16:03:14;2.88;;;1.42;;
75912;SDS011;64592;52.168;21.040;2023-03-25T16:13:26;2.90;;;1.77;;
75912;SDS011;64592;52.168;21.040;2023-03-25T16:18:28;3.97;;;1.55;;
75912;SDS011;64592;52.168;21.040;2023-03-25T16:23:30;2.63;;;1.55;;
75912;SDS011;64592;52.168;21.040;2023-03-25T16:28:35;3.53;;;2.10;;
75912;SDS011;64592;52.168;21.040;2023-03-25T16:33:41;3.85;;;1.83;;
75912;SDS011;64592;52.168;21.040;2023-03-25T16:38:44;4.93;;;2.00;;
75912;SDS011;64592;52.168;21.040;2023-03-25T16:43:47;4.60;;;2.90;;
75912;SDS011;64592;52.168;21.040;2023-03-25T16:48:50;3.78;;;2.30;;
75912;SDS011;64592;52.168;21.040;2023-03-25T16:53:54;4.97;;;2.20;;
75912;SDS011;64592;52.168;21.040;2023-03-25T16:59:00;5.10;;;2.55;;
75912;SDS011;64592;52.168;21.040;2023-03-25T17:04:05;3.78;;;2.47;;
75912;SDS011;64592;52.168;21.040;2023-03-25T17:09:13;7.32;;;3.03;;
75912;SDS011;64592;52.168;21.040;2023-03-25T17:14:19;4.68;;;3.05;;
75912;SDS011;64592;52.168;21.040;2023-03-25T17:19:22;7.45;;;3.42;;
75912;SDS011;64592;52.168;21.040;2023-03-25T17:24:27;6.18;;;3.35;;
75912;SDS011;64592;52.168;21.040;2023-03-25T17:29:48;6.22;;;3.90;;
75912;SDS011;64592;52.168;21.040;2023-03-25T17:34:54;5.13;;;3.42;;
75912;SDS011;64592;52.168;21.040;2023-03-25T17:39:57;5.90;;;3.63;;
75912;SDS011;64592;52.168;21.040;2023-03-25T17:45:05;6.18;;;3.88;;
75912;SDS011;64592;52.168;21.040;2023-03-25T17:50:13;7.68;;;4.32;;
75912;SDS011;64592;52.168;21.040;2023-03-25T17:55:16;6.50;;;3.78;;
75912;SDS011;64592;52.168;21.040;2023-03-25T18:00:19;10.52;;;4.65;;
75912;SDS011;64592;52.168;21.040;2023-03-25T18:05:21;6.50;;;4.40;;
75912;SDS011;64592;52.168;21.040;2023-03-25T18:10:22;6.60;;;4.60;;
75912;SDS011;64592;52.168;21.040;2023-03-25T18:15:27;10.57;;;5.20;;
75912;SDS011;64592;52.168;21.040;2023-03-25T18:20:30;9.10;;;5.32;;
75912;SDS011;64592;52.168;21.040;2023-03-25T18:25:32;7.28;;;4.38;;
75912;SDS011;64592;52.168;21.040;2023-03-25T18:30:37;8.50;;;4.85;;
75912;SDS011;64592;52.168;21.040;2023-03-25T18:35:43;10.35;;;5.25;;
75912;SDS011;64592;52.168;21.040;2023-03-25T18:40:45;7.78;;;5.00;;
75912;SDS011;64592;52.168;21.040;2023-03-25T18:45:49;6.60;;;4.05;;
75912;SDS011;64592;52.168;21.040;2023-03-25T18:50:52;7.43;;;3.08;;
75912;SDS011;64592;52.168;21.040;2023-03-25T18:55:57;6.90;;;3.28;;
75912;SDS011;64592;52.168;21.040;2023-03-25T19:01:03;5.75;;;3.28;;
75912;SDS011;64592;52.168;21.040;2023-03-25T19:06:07;4.30;;;3.28;;
75912;SDS011;64592;52.168;21.040;2023-03-25T19:11:11;6.25;;;3.40;;
75912;SDS011;64592;52.168;21.040;2023-03-25T19:16:15;7.15;;;4.25;;
75912;SDS011;64592;52.168;21.040;2023-03-25T19:21:17;5.72;;;3.85;;
75912;SDS011;64592;52.168;21.040;2023-03-25T19:26:19;3.60;;;2.65;;
75912;SDS011;64592;52.168;21.040;2023-03-25T19:31:22;6.30;;;3.17;;
75912;SDS011;64592;52.168;21.040;2023-03-25T19:36:24;4.50;;;2.97;;
75912;SDS011;64592;52.168;21.040;2023-03-25T19:41:26;5.35;;;3.00;;
75912;SDS011;64592;52.168;21.040;2023-03-25T19:46:29;5.22;;;2.63;;
75912;SDS011;64592;52.168;21.040;2023-03-25T19:51:32;4.70;;;2.70;;
75912;SDS011;64592;52.168;21.040;2023-03-25T19:56:34;5.25;;;2.85;;
75912;SDS011;64592;52.168;21.040;2023-03-25T20:01:37;5.00;;;2.80;;
75912;SDS011;64592;52.168;21.040;2023-03-25T20:06:39;4.55;;;2.78;;
75912;SDS011;64592;52.168;21.040;2023-03-25T20:11:41;4.40;;;3.20;;
75912;SDS011;64592;52.168;21.040;2023-03-25T20:16:45;4.68;;;2.40;;
75912;SDS011;64592;52.168;21.040;2023-03-25T20:21:46;4.90;;;2.95;;
75912;SDS011;64592;52.168;21.040;2023-03-25T20:26:48;5.50;;;3.08;;
75912;SDS011;64592;52.168;21.040;2023-03-25T20:31:51;6.03;;;2.83;;
75912;SDS011;64592;52.168;21.040;2023-03-25T20:36:53;7.18;;;3.60;;
75912;SDS011;64592;52.168;21.040;2023-03-25T20:41:55;6.07;;;3.70;;
75912;SDS011;64592;52.168;21.040;2023-03-25T20:46:58;9.20;;;4.93;;
75912;SDS011;64592;52.168;21.040;2023-03-25T20:52:00;6.80;;;4.32;;
75912;SDS011;64592;52.168;21.040;2023-03-25T20:57:02;8.63;;;4.80;;
75912;SDS011;64592;52.168;21.040;2023-03-25T21:02:09;7.63;;;4.57;;
75912;SDS011;64592;52.168;21.040;2023-03-25T21:07:11;6.97;;;4.43;;
75912;SDS011;64592;52.168;21.040;2023-03-25T21:12:13;11.07;;;5.40;;
75912;SDS011;64592;52.168;21.040;2023-03-25T21:17:16;9.85;;;6.03;;
75912;SDS011;64592;52.168;21.040;2023-03-25T21:22:18;8.60;;;5.55;;
75912;SDS011;64592;52.168;21.040;2023-03-25T21:27:19;9.70;;;5.32;;
75912;SDS011;64592;52.168;21.040;2023-03-25T21:32:23;11.80;;;6.32;;
75912;SDS011;64592;52.168;21.040;2023-03-25T21:37:25;14.57;;;6.20;;
75912;SDS011;64592;52.168;21.040;2023-03-25T21:42:28;10.52;;;5.97;;
75912;SDS011;64592;52.168;21.040;2023-03-25T21:47:31;11.15;;;6.57;;
75912;SDS011;64592;52.168;21.040;2023-03-25T21:52:33;11.55;;;7.25;;
75912;SDS011;64592;52.168;21.040;2023-03-25T21:57:38;9.55;;;6.80;;
75912;SDS011;64592;52.168;21.040;2023-03-25T22:02:45;13.38;;;7.78;;
75912;SDS011;64592;52.168;21.040;2023-03-25T22:07:47;13.02;;;7.28;;
75912;SDS011;64592;52.168;21.040;2023-03-25T22:12:49;13.48;;;8.10;;
75912;SDS011;64592;52.168;21.040;2023-03-25T22:17:52;11.52;;;7.25;;
75912;SDS011;64592;52.168;21.040;2023-03-25T22:22:53;11.98;;;7.22;;
75912;SDS011;64592;52.168;21.040;2023-03-25T22:27:55;10.75;;;6.53;;
75912;SDS011;64592;52.168;21.040;2023-03-25T22:32:59;12.27;;;7.68;;
75912;SDS011;64592;52.168;21.040;2023-03-25T22:38:01;10.18;;;6.28;;
75912;SDS011;64592;52.168;21.040;2023-03-25T22:43:04;12.23;;;7.40;;
75912;SDS011;64592;52.168;21.040;2023-03-25T22:48:07;9.57;;;6.32;;
75912;SDS011;64592;52.168;21.040;2023-03-25T22:53:09;10.40;;;6.35;;
75912;SDS011;64592;52.168;21.040;2023-03-25T22:58:10;10.73;;;7.13;;
75912;SDS011;64592;52.168;21.040;2023-03-25T23:03:13;12.45;;;7.40;;
75912;SDS011;64592;52.168;21.040;2023-03-25T23:08:15;11.07;;;6.30;;
75912;SDS011;64592;52.168;21.040;2023-03-25T23:13:17;11.80;;;6.22;;
75912;SDS011;64592;52.168;21.040;2023-03-25T23:18:21;8.95;;;5.65;;
75912;SDS011;64592;52.168;21.040;2023-03-25T23:23:23;9.43;;;5.57;;
75912;SDS011;64592;52.168;21.040;2023-03-25T23:28:25;12.40;;;6.53;;
75912;SDS011;64592;52.168;21.040;2023-03-25T23:33:28;9.73;;;6.05;;
75912;SDS011;64592;52.168;21.040;2023-03-25T23:38:30;10.50;;;6.05;;
75912;SDS011;64592;52.168;21.040;2023-03-25T23:43:33;10.23;;;6.25;;
75912;SDS011;64592;52.168;21.040;2023-03-25T23:48:39;9.88;;;5.57;;
75912;SDS011;64592;52.168;21.040;2023-03-25T23:53:41;17.95;;;6.00;;
75912;SDS011;64592;52.168;21.040;2023-03-25T23:58:43;8.20;;;5.72;;
